Terminal Aerodrome Forecast
Issued by NWS

Current Version | Previous Version | Text Only | Print | Product List | Glossary On
Versions: 1 2 3 4 5 6 7 8 9 10 11 12 13 14 15 16
000
FTUS45 KVEF 041120
TAFDAG
TAF
KDAG 041120Z 0412/0512 27010KT P6SM BKN250
     FM041700 30010KT P6SM BKN250
     FM042100 06007KT P6SM BKN250
     FM050200 24010KT P6SM BKN250
     FM050600 28010KT P6SM BKN250=

USA.gov is the U.S. government's official web portal to all federal, state and local government web resources and services.